createdAt,value
2019-02-02T00:01:22.588Z,83.63
2019-02-02T00:03:51.981Z,77.83
2019-02-02T00:06:21.318Z,79.27
2019-02-02T00:08:50.591Z,79.20
2019-02-02T00:11:19.936Z,79.20
2019-02-02T00:13:49.216Z,82.03
2019-02-02T00:16:18.501Z,82.33
2019-02-02T00:18:47.815Z,77.87
2019-02-02T00:21:17.081Z,75.87
2019-02-02T00:23:46.440Z,78.57
2019-02-02T00:26:15.778Z,77.80
2019-02-02T00:29:04.325Z,76.37
2019-02-02T00:31:33.510Z,78.20
2019-02-02T00:34:02.783Z,80.97
2019-02-02T00:36:32.048Z,84.73
2019-02-02T00:39:01.330Z,74.27
2019-02-02T00:41:30.545Z,81.47
2019-02-02T00:43:59.749Z,87.90
2019-02-02T00:46:29.003Z,82.97
2019-02-02T00:48:58.316Z,83.07
2019-02-02T00:51:27.501Z,83.33
2019-02-02T00:53:56.762Z,87.00
2019-02-02T00:56:25.929Z,82.97
2019-02-02T00:58:55.298Z,75.03
2019-02-02T01:01:24.611Z,86.13
2019-02-02T01:03:53.898Z,76.40
2019-02-02T01:06:23.092Z,85.80
2019-02-02T01:08:52.342Z,81.40
2019-02-02T01:11:22.082Z,83.20
2019-02-02T01:13:51.409Z,82.87
2019-02-02T01:16:20.606Z,87.33
2019-02-02T01:18:49.978Z,84.73
2019-02-02T01:21:19.234Z,91.13
2019-02-02T01:23:48.485Z,89.00
2019-02-02T01:26:17.769Z,86.10
2019-02-02T01:28:46.949Z,80.87
2019-02-02T01:31:16.217Z,83.43
2019-02-02T01:33:45.398Z,84.43
2019-02-02T01:36:14.697Z,83.63
2019-02-02T01:38:44.062Z,84.23
2019-02-02T01:41:13.353Z,87.37
2019-02-02T01:43:42.613Z,82.37
2019-02-02T01:46:11.859Z,84.33
2019-02-02T01:48:41.150Z,79.57
2019-02-02T01:51:10.538Z,74.27
2019-02-02T01:53:39.886Z,80.00
2019-02-02T01:56:09.082Z,78.00
2019-02-02T01:58:38.318Z,78.27
2019-02-02T02:01:07.892Z,86.97
2019-02-02T02:03:37.171Z,83.30
2019-02-02T02:06:06.368Z,83.80
2019-02-02T02:08:35.661Z,84.53
2019-02-02T02:11:05.655Z,80.53
2019-02-02T02:13:34.909Z,88.13
2019-02-02T02:16:04.233Z,83.63
2019-02-02T02:18:33.510Z,85.57
2019-02-02T02:21:02.803Z,85.83
2019-02-02T02:23:32.062Z,85.63
2019-02-02T02:26:01.363Z,83.90
2019-02-02T02:28:30.664Z,87.10
2019-02-02T02:30:59.949Z,82.23
2019-02-02T02:33:29.129Z,77.10
2019-02-02T02:35:58.427Z,84.73
2019-02-02T02:38:27.772Z,87.50
2019-02-02T02:40:57.137Z,84.23
2019-02-02T02:43:26.423Z,86.67
2019-02-02T02:45:55.674Z,83.07
2019-02-02T02:48:24.892Z,90.70
2019-02-02T02:50:54.175Z,80.07
2019-02-02T02:53:23.417Z,83.47
2019-02-02T02:55:52.788Z,80.47
2019-02-02T02:58:22.076Z,83.73
2019-02-02T03:00:51.533Z,89.03
2019-02-02T03:03:20.715Z,81.93
2019-02-02T03:05:49.996Z,83.77
2019-02-02T03:08:19.171Z,74.53
2019-02-02T03:10:48.435Z,84.40
2019-02-02T03:13:17.741Z,83.23
2019-02-02T03:15:47.062Z,85.43
2019-02-02T03:18:16.306Z,83.23
2019-02-02T03:20:45.722Z,83.07
2019-02-02T03:23:15.094Z,84.83
2019-02-02T03:25:44.361Z,81.03
2019-02-02T03:28:13.645Z,85.03
2019-02-02T03:30:42.884Z,83.73
2019-02-02T03:33:12.166Z,84.97
2019-02-02T03:35:41.528Z,87.17
2019-02-02T03:38:10.858Z,87.73
2019-02-02T03:40:40.151Z,84.90
2019-02-02T03:43:09.501Z,83.40
2019-02-02T03:45:40.831Z,87.20
2019-02-02T03:48:09.786Z,88.20
2019-02-02T03:50:38.964Z,82.97
2019-02-02T03:53:08.255Z,89.00
2019-02-02T03:55:37.496Z,82.77
2019-02-02T03:58:06.794Z,77.83
2019-02-02T04:00:36.100Z,81.07
2019-02-02T04:03:05.487Z,87.13
2019-02-02T04:05:34.798Z,83.17
2019-02-02T04:08:04.089Z,85.33
2019-02-02T04:10:33.330Z,76.13
2019-02-02T04:13:02.614Z,80.60
2019-02-02T04:15:31.874Z,81.93
2019-02-02T04:18:01.208Z,85.90
2019-02-02T04:20:30.410Z,80.50
2019-02-02T04:22:59.678Z,84.67
2019-02-02T04:25:28.933Z,84.43
2019-02-02T04:27:58.150Z,88.07
2019-02-02T04:30:27.611Z,86.77
2019-02-02T04:32:56.925Z,87.40
2019-02-02T04:35:26.190Z,97.43
2019-02-02T04:37:55.478Z,89.87
2019-02-02T04:40:24.733Z,94.83
2019-02-02T04:42:53.930Z,95.73
2019-02-02T04:45:23.254Z,93.00
2019-02-02T04:47:52.470Z,85.27
2019-02-02T04:50:21.761Z,90.63
2019-02-02T04:52:50.979Z,91.43
2019-02-02T04:55:20.382Z,95.60
2019-02-02T04:57:49.720Z,92.43
2019-02-02T05:00:21.526Z,98.17
2019-02-02T05:02:50.831Z,94.67
2019-02-02T05:05:20.219Z,92.13
2019-02-02T05:07:49.782Z,96.80
2019-02-02T05:10:20.407Z,96.63
2019-02-02T05:12:49.822Z,89.93
2019-02-02T05:15:19.194Z,94.20
2019-02-02T05:17:48.563Z,94.77
2019-02-02T05:20:18.195Z,92.67
2019-02-02T05:22:47.531Z,100.17
2019-02-02T05:25:16.977Z,86.30
2019-02-02T05:27:46.364Z,82.37
2019-02-02T05:30:21.262Z,101.07
2019-02-02T05:32:50.718Z,85.43
2019-02-02T05:35:19.897Z,89.67
2019-02-02T05:37:49.351Z,91.63
2019-02-02T05:40:19.318Z,90.57
2019-02-02T05:42:50.379Z,89.23
2019-02-02T05:45:20.404Z,97.03
2019-02-02T05:47:49.845Z,96.57
2019-02-02T05:50:20.932Z,85.93
2019-02-02T05:52:50.234Z,84.47
2019-02-02T05:55:19.869Z,94.43
2019-02-02T05:57:49.141Z,93.83
2019-02-02T06:00:30.342Z,91.23
2019-02-02T06:02:59.621Z,95.80
2019-02-02T06:05:28.906Z,98.23
2019-02-02T06:07:58.223Z,94.40
2019-02-02T06:10:27.428Z,92.30
2019-02-02T06:12:56.709Z,90.40
2019-02-02T06:15:28.783Z,93.78
2019-02-02T06:17:57.696Z,101.80
2019-02-02T06:20:27.067Z,100.57
2019-02-02T06:22:56.353Z,93.43
2019-02-02T06:25:25.647Z,100.93
2019-02-02T06:27:55.022Z,99.70
2019-02-02T06:30:25.155Z,99.03
2019-02-02T06:32:54.409Z,100.50
2019-02-02T06:35:23.707Z,99.97
2019-02-02T06:37:52.989Z,103.03
2019-02-02T06:40:22.333Z,108.03
2019-02-02T06:42:51.556Z,99.03
2019-02-02T06:45:29.370Z,100.77
2019-02-02T06:47:59.055Z,88.07
2019-02-02T06:50:28.329Z,97.97
2019-02-02T06:52:57.928Z,94.07
2019-02-02T06:55:27.269Z,96.53
2019-02-02T06:57:56.546Z,108.63
2019-02-02T07:00:26.986Z,98.63
2019-02-02T07:02:56.628Z,93.83
2019-02-02T07:05:25.980Z,101.07
2019-02-02T07:07:55.437Z,97.37
2019-02-02T07:10:26.450Z,91.13
2019-02-02T07:12:55.699Z,99.77
2019-02-02T07:15:27.055Z,103.30
2019-02-02T07:17:56.261Z,89.53
2019-02-02T07:20:25.703Z,100.57
2019-02-02T07:22:55.140Z,91.50
2019-02-02T07:25:24.433Z,103.97
2019-02-02T07:27:53.674Z,85.17
2019-02-02T07:30:28.662Z,100.30
2019-02-02T07:32:54.419Z,92.67
2019-02-02T07:35:23.876Z,99.53
2019-02-02T07:37:53.154Z,93.60
2019-02-02T07:40:22.837Z,88.60
2019-02-02T07:42:53.217Z,95.87
2019-02-02T07:45:25.036Z,92.70
2019-02-02T07:47:54.263Z,94.67
2019-02-02T07:50:42.618Z,89.97
2019-02-02T07:53:11.906Z,88.80
2019-02-02T07:55:41.357Z,95.63
2019-02-02T07:58:10.678Z,92.03
2019-02-02T08:00:41.392Z,96.60
2019-02-02T08:03:12.539Z,92.03
2019-02-02T08:05:41.841Z,96.27
2019-02-02T08:08:11.147Z,101.77
2019-02-02T08:10:40.355Z,102.97
2019-02-02T08:13:09.698Z,92.03
2019-02-02T08:15:39.078Z,102.33
2019-02-02T08:18:08.380Z,101.00
2019-02-02T08:20:37.657Z,106.30
2019-02-02T08:23:06.943Z,103.07
2019-02-02T08:25:36.316Z,124.50
2019-02-02T08:28:05.933Z,139.07
2019-02-02T08:30:36.247Z,129.60
2019-02-02T08:33:06.437Z,113.77
2019-02-02T08:35:35.794Z,103.37
2019-02-02T08:38:05.394Z,98.77
2019-02-02T08:40:34.846Z,110.13
2019-02-02T08:43:04.158Z,94.33
2019-02-02T08:45:33.481Z,100.93
2019-02-02T08:48:02.861Z,107.93
2019-02-02T08:50:39.542Z,97.20
2019-02-02T08:53:08.982Z,93.63
2019-02-02T08:55:38.289Z,105.03
2019-02-02T08:58:07.666Z,106.77
2019-02-02T09:00:36.957Z,104.20
2019-02-02T09:03:06.534Z,91.07
2019-02-02T09:05:35.846Z,97.80
2019-02-02T09:08:05.293Z,103.53
2019-02-02T09:10:34.515Z,112.77
2019-02-02T09:13:03.870Z,113.77
2019-02-02T09:15:33.286Z,124.07
2019-02-02T09:18:02.582Z,119.80
2019-02-02T09:20:34.188Z,108.87
2019-02-02T09:23:06.583Z,114.47
2019-02-02T09:25:34.533Z,118.73
2019-02-02T09:28:03.867Z,110.73
2019-02-02T09:30:36.408Z,117.07
2019-02-02T09:33:06.563Z,108.77
2019-02-02T09:35:35.820Z,105.07
2019-02-02T09:38:05.777Z,117.73
2019-02-02T09:40:36.240Z,114.43
2019-02-02T09:43:05.842Z,120.87
2019-02-02T09:45:35.186Z,123.27
2019-02-02T09:48:04.650Z,114.63
2019-02-02T09:50:34.013Z,120.27
2019-02-02T09:53:03.413Z,118.87
2019-02-02T09:55:32.811Z,126.77
2019-02-02T09:58:05.270Z,121.10
2019-02-02T10:00:34.579Z,124.23
2019-02-02T10:03:03.926Z,128.07
2019-02-02T10:05:33.267Z,122.93
2019-02-02T10:08:02.621Z,125.07
2019-02-02T10:10:33.572Z,126.93
2019-02-02T10:13:03.144Z,124.87
2019-02-02T10:15:32.417Z,129.97
2019-02-02T10:18:01.740Z,130.67
2019-02-02T10:20:32.515Z,138.37
2019-02-02T10:23:02.062Z,146.27
2019-02-02T10:25:31.797Z,129.33
2019-02-02T10:28:03.180Z,132.67
2019-02-02T10:30:37.388Z,133.80
2019-02-02T10:33:06.982Z,135.27
2019-02-02T10:35:36.313Z,144.03
2019-02-02T10:38:06.484Z,142.47
2019-02-02T10:40:35.824Z,128.97
2019-02-02T10:43:05.464Z,143.47
2019-02-02T10:45:34.880Z,134.87
2019-02-02T10:48:05.718Z,142.23
2019-02-02T10:50:35.017Z,150.20
2019-02-02T10:53:04.845Z,135.23
2019-02-02T10:55:34.118Z,143.67
2019-02-02T10:58:03.330Z,141.20
2019-02-02T11:00:34.458Z,148.43
2019-02-02T11:03:03.831Z,163.70
2019-02-02T11:05:33.293Z,148.23
2019-02-02T11:08:02.685Z,153.17
2019-02-02T11:10:32.042Z,165.83
2019-02-02T11:13:01.545Z,159.03
2019-02-02T11:15:30.927Z,150.60
2019-02-02T11:18:00.201Z,141.50
2019-02-02T11:20:31.300Z,160.23
2019-02-02T11:23:00.523Z,146.47
2019-02-02T11:25:29.964Z,135.23
2019-02-02T11:27:59.274Z,153.03
2019-02-02T11:30:29.104Z,155.13
2019-02-02T11:32:58.597Z,147.97
2019-02-02T11:35:27.905Z,143.77
2019-02-02T11:37:57.577Z,155.77
2019-02-02T11:40:29.069Z,153.83
2019-02-02T11:42:58.671Z,148.47
2019-02-02T11:45:28.243Z,170.30
2019-02-02T11:47:57.453Z,159.43
2019-02-02T11:50:26.877Z,170.40
2019-02-02T11:52:56.144Z,166.73
2019-02-02T11:55:25.562Z,156.67
2019-02-02T11:57:55.021Z,153.17
2019-02-02T12:00:26.668Z,160.00
2019-02-02T12:02:55.928Z,161.40
2019-02-02T12:05:25.217Z,168.13
2019-02-02T12:07:54.605Z,166.63
2019-02-02T12:10:25.388Z,158.40
2019-02-02T12:12:54.726Z,163.00
2019-02-02T12:15:25.407Z,164.27
2019-02-02T12:17:54.789Z,175.53
2019-02-02T12:20:24.427Z,162.50
2019-02-02T12:22:53.726Z,161.37
2019-02-02T12:25:22.994Z,171.90
2019-02-02T12:27:52.273Z,168.17
2019-02-02T12:30:26.925Z,162.33
2019-02-02T12:32:56.166Z,171.03
2019-02-02T12:35:26.181Z,169.87
2019-02-02T12:37:55.586Z,172.63
2019-02-02T12:40:25.338Z,163.27
2019-02-02T12:42:54.518Z,180.57
2019-02-02T12:45:39.215Z,160.90
2019-02-02T12:48:08.581Z,173.27
2019-02-02T12:50:37.854Z,167.63
2019-02-02T12:53:07.224Z,159.83
2019-02-02T12:55:36.430Z,168.77
2019-02-02T12:58:06.750Z,168.03
2019-02-02T13:00:36.030Z,172.50
2019-02-02T13:03:06.158Z,171.43
2019-02-02T13:05:35.512Z,166.77
2019-02-02T13:08:05.690Z,164.40
2019-02-02T13:10:35.171Z,160.20
2019-02-02T13:13:04.642Z,171.80
2019-02-02T13:15:33.938Z,151.63
2019-02-02T13:18:03.121Z,159.47
2019-02-02T13:20:32.390Z,169.53
2019-02-02T13:23:01.669Z,169.80
2019-02-02T13:25:30.973Z,157.73
2019-02-02T13:28:00.271Z,167.77
2019-02-02T13:30:31.792Z,167.70
2019-02-02T13:33:01.120Z,152.67
2019-02-02T13:35:31.932Z,160.90
2019-02-02T13:38:01.252Z,169.67
2019-02-02T13:40:30.580Z,172.03
2019-02-02T13:42:59.919Z,172.33
2019-02-02T13:45:29.209Z,165.53
2019-02-02T13:47:58.588Z,170.70
2019-02-02T13:50:27.963Z,178.30
2019-02-02T13:52:57.237Z,164.63
2019-02-02T13:55:26.513Z,172.53
2019-02-02T13:57:55.815Z,163.67
2019-02-02T14:00:27.536Z,186.03
2019-02-02T14:03:02.962Z,176.30
2019-02-02T14:05:27.878Z,187.27
2019-02-02T14:07:59.911Z,156.53
2019-02-02T14:10:29.816Z,168.77
2019-02-02T14:12:59.162Z,188.27
2019-02-02T14:15:28.445Z,177.73
2019-02-02T14:17:57.715Z,173.50
2019-02-02T14:20:27.186Z,192.30
2019-02-02T14:22:56.482Z,183.50
2019-02-02T14:25:25.870Z,192.93
2019-02-02T14:27:55.371Z,190.57
2019-02-02T14:30:25.774Z,181.50
2019-02-02T14:32:55.499Z,195.07
2019-02-02T14:35:26.379Z,183.17
2019-02-02T14:37:55.825Z,198.33
2019-02-02T14:40:25.173Z,210.13
2019-02-02T14:42:54.535Z,201.93
2019-02-02T14:45:27.344Z,212.77
2019-02-02T14:47:56.993Z,220.35
2019-02-02T14:50:26.280Z,236.10
2019-02-02T14:52:55.718Z,222.63
2019-02-02T14:55:27.110Z,205.73
2019-02-02T14:57:58.261Z,205.63
2019-02-02T15:00:28.911Z,216.23
2019-02-02T15:02:58.313Z,186.80
2019-02-02T15:05:27.885Z,207.77
2019-02-02T15:07:57.271Z,202.60
2019-02-02T15:10:26.586Z,200.83
2019-02-02T15:12:56.052Z,199.27
2019-02-02T15:15:25.325Z,198.17
2019-02-02T15:17:55.175Z,214.30
2019-02-02T15:20:30.900Z,208.63
2019-02-02T15:23:00.416Z,209.20
2019-02-02T15:25:30.299Z,209.10
2019-02-02T15:27:59.588Z,216.60
2019-02-02T15:30:29.568Z,204.83
2019-02-02T15:32:58.895Z,213.17
2019-02-02T15:35:28.294Z,181.23
2019-02-02T15:37:57.958Z,188.93
2019-02-02T15:40:27.343Z,207.67
2019-02-02T15:42:56.693Z,210.03
2019-02-02T15:45:28.342Z,215.97
2019-02-02T15:47:57.627Z,207.67
2019-02-02T15:50:27.510Z,208.93
2019-02-02T15:52:56.786Z,204.17
2019-02-02T15:55:26.383Z,177.40
2019-02-02T15:57:55.683Z,190.77
2019-02-02T16:00:27.031Z,185.23
2019-02-02T16:02:56.499Z,171.90
2019-02-02T16:05:26.314Z,195.70
2019-02-02T16:07:56.004Z,168.93
2019-02-02T16:10:26.747Z,161.23
2019-02-02T16:12:56.132Z,169.93
2019-02-02T16:15:26.107Z,163.13
2019-02-02T16:17:57.263Z,148.63
2019-02-02T16:20:31.801Z,168.53
2019-02-02T16:23:01.280Z,168.77
2019-02-02T16:25:34.260Z,152.23
2019-02-02T16:28:06.502Z,157.27
2019-02-02T16:30:37.197Z,170.47
2019-02-02T16:33:06.833Z,160.53
2019-02-02T16:35:36.079Z,151.07
2019-02-02T16:38:05.746Z,150.17
2019-02-02T16:40:38.064Z,159.03
2019-02-02T16:43:10.577Z,178.50
2019-02-02T16:45:39.926Z,173.40
2019-02-02T16:48:09.279Z,174.17
2019-02-02T16:50:38.700Z,175.70
2019-02-02T16:53:08.194Z,146.73
2019-02-02T16:55:37.856Z,142.77
2019-02-02T16:58:07.922Z,147.63
2019-02-02T17:00:37.298Z,153.80
2019-02-02T17:03:08.620Z,138.47
2019-02-02T17:05:38.105Z,143.47
2019-02-02T17:08:09.075Z,131.60
2019-02-02T17:10:41.397Z,128.60
2019-02-02T17:13:10.865Z,127.23
2019-02-02T17:15:40.201Z,124.73
2019-02-02T17:18:09.545Z,125.53
2019-02-02T17:20:46.525Z,136.10
2019-02-02T17:23:15.845Z,129.40
2019-02-02T17:25:48.083Z,133.37
2019-02-02T17:28:17.317Z,123.37
2019-02-02T17:30:46.869Z,115.53
2019-02-02T17:33:18.126Z,120.07
2019-02-02T17:35:47.446Z,121.47
2019-02-02T17:38:16.769Z,136.80
2019-02-02T17:40:46.154Z,128.30
2019-02-02T17:43:15.469Z,130.93
2019-02-02T17:45:44.804Z,128.93
2019-02-02T17:48:14.080Z,120.63
2019-02-02T17:50:43.409Z,118.77
2019-02-02T17:53:12.684Z,132.23
2019-02-02T17:56:01.103Z,150.83
2019-02-02T17:58:39.247Z,160.60
2019-02-02T18:01:02.153Z,144.00
2019-02-02T18:03:31.523Z,140.93
2019-02-02T18:06:00.774Z,144.80
2019-02-02T18:08:30.112Z,142.17
2019-02-02T18:10:59.533Z,151.27
2019-02-02T18:13:28.723Z,157.87
2019-02-02T18:15:58.000Z,154.93
2019-02-02T18:18:27.277Z,150.00
2019-02-02T18:20:56.582Z,146.67
2019-02-02T18:23:25.890Z,154.57
2019-02-02T18:25:55.132Z,178.77
2019-02-02T18:28:24.411Z,157.93
2019-02-02T18:30:53.679Z,161.23
2019-02-02T18:33:22.944Z,174.87
2019-02-02T18:35:52.337Z,176.83
2019-02-02T18:38:21.635Z,172.63
2019-02-02T18:40:50.929Z,166.37
2019-02-02T18:43:20.227Z,172.80
2019-02-02T18:45:49.554Z,171.40
2019-02-02T18:48:18.831Z,170.97
2019-02-02T18:50:48.100Z,177.47
2019-02-02T18:53:17.460Z,178.50
2019-02-02T18:56:00.478Z,182.63
2019-02-02T18:58:29.984Z,161.87
2019-02-02T19:00:59.276Z,176.63
2019-02-02T19:03:28.565Z,177.63
2019-02-02T19:05:58.089Z,175.43
2019-02-02T19:08:27.366Z,159.73
2019-02-02T19:10:59.301Z,156.33
2019-02-02T19:13:28.637Z,161.87
2019-02-02T19:15:57.981Z,161.80
2019-02-02T19:18:27.268Z,170.23
2019-02-02T19:20:56.536Z,159.80
2019-02-02T19:23:25.804Z,157.40
2019-02-02T19:25:55.138Z,156.27
2019-02-02T19:28:26.558Z,169.17
2019-02-02T19:30:55.438Z,145.40
2019-02-02T19:33:24.612Z,156.27
2019-02-02T19:35:53.889Z,171.00
2019-02-02T19:38:23.086Z,160.90
2019-02-02T19:40:52.399Z,153.50
2019-02-02T19:43:21.704Z,162.27
2019-02-02T19:45:53.528Z,162.03
2019-02-02T19:48:22.022Z,171.27
2019-02-02T19:50:51.371Z,165.63
2019-02-02T19:53:20.791Z,156.53
2019-02-02T19:55:50.061Z,185.67
2019-02-02T19:58:19.279Z,172.73
2019-02-02T20:00:48.637Z,186.33
2019-02-02T20:03:17.881Z,166.60
2019-02-02T20:05:47.170Z,185.53
2019-02-02T20:08:16.452Z,180.27
2019-02-02T20:10:45.764Z,169.03
2019-02-02T20:13:15.007Z,186.17
2019-02-02T20:15:44.382Z,187.47
2019-02-02T20:18:13.767Z,188.47
2019-02-02T20:20:43.020Z,192.23
2019-02-02T20:23:12.377Z,178.43
2019-02-02T20:25:41.637Z,194.80
2019-02-02T20:28:10.994Z,183.73
2019-02-02T20:30:40.356Z,177.00
2019-02-02T20:33:09.716Z,159.27
2019-02-02T20:35:41.860Z,164.83
2019-02-02T20:38:09.991Z,170.83
2019-02-02T20:40:39.277Z,161.27
2019-02-02T20:43:08.553Z,169.83
2019-02-02T20:45:37.966Z,169.57
2019-02-02T20:48:07.325Z,173.53
2019-02-02T20:50:36.591Z,171.17
2019-02-02T20:53:06.001Z,172.20
2019-02-02T20:55:38.230Z,172.17
2019-02-02T20:58:07.776Z,167.97
2019-02-02T21:00:37.698Z,176.43
2019-02-02T21:03:07.039Z,166.07
2019-02-02T21:05:36.301Z,187.60
2019-02-02T21:08:06.190Z,170.37
2019-02-02T21:10:35.597Z,179.03
2019-02-02T21:13:05.155Z,161.70
2019-02-02T21:15:34.473Z,165.37
2019-02-02T21:18:03.967Z,145.67
2019-02-02T21:20:33.583Z,155.50
2019-02-02T21:23:02.953Z,153.07
2019-02-02T21:25:32.325Z,166.83
2019-02-02T21:28:01.679Z,161.07
2019-02-02T21:30:33.057Z,169.77
2019-02-02T21:33:02.318Z,149.77
2019-02-02T21:35:31.628Z,144.63
2019-02-02T21:38:00.934Z,157.57
2019-02-02T21:40:31.978Z,150.83
2019-02-02T21:43:01.287Z,159.67
2019-02-02T21:45:30.652Z,157.93
2019-02-02T21:47:59.954Z,160.27
2019-02-02T21:50:29.288Z,160.27
2019-02-02T21:52:58.683Z,155.17
2019-02-02T21:55:28.708Z,159.60
2019-02-02T21:57:58.021Z,156.37
2019-02-02T22:00:35.843Z,162.10
2019-02-02T22:03:06.058Z,162.23
2019-02-02T22:05:35.346Z,146.03
2019-02-02T22:08:05.367Z,157.90
2019-02-02T22:10:34.654Z,168.43
2019-02-02T22:13:04.326Z,166.10
2019-02-02T22:15:33.696Z,157.87
2019-02-02T22:18:03.001Z,158.03
2019-02-02T22:20:32.202Z,152.57
2019-02-02T22:23:02.557Z,172.90
2019-02-02T22:25:31.982Z,173.43
2019-02-02T22:28:01.324Z,181.93
2019-02-02T22:30:32.401Z,173.97
2019-02-02T22:33:01.775Z,174.10
2019-02-02T22:35:31.126Z,171.83
2019-02-02T22:38:00.741Z,173.83
2019-02-02T22:40:30.130Z,174.83
2019-02-02T22:42:59.480Z,181.93
2019-02-02T22:45:28.735Z,179.00
2019-02-02T22:47:58.593Z,177.80
2019-02-02T22:50:28.388Z,176.33
2019-02-02T22:52:57.793Z,189.47
2019-02-02T22:55:27.052Z,182.03
2019-02-02T22:57:56.314Z,184.17
2019-02-02T23:01:12.209Z,182.73
2019-02-02T23:04:24.025Z,194.80
2019-02-02T23:07:21.626Z,188.60
2019-02-02T23:10:37.113Z,195.97
2019-02-02T23:13:36.793Z,200.27
2019-02-02T23:16:24.021Z,187.37
2019-02-02T23:18:53.666Z,194.90
2019-02-02T23:21:23.307Z,202.43
2019-02-02T23:23:52.865Z,195.67
2019-02-02T23:26:22.618Z,189.80
2019-02-02T23:28:51.877Z,191.47
2019-02-02T23:31:21.692Z,197.17
2019-02-02T23:33:50.994Z,188.43
2019-02-02T23:36:20.380Z,192.57
2019-02-02T23:38:49.702Z,190.80
2019-02-02T23:41:19.042Z,201.27
2019-02-02T23:43:49.160Z,202.83
2019-02-02T23:46:18.513Z,188.33
2019-02-02T23:48:51.070Z,198.60
2019-02-02T23:51:20.594Z,202.77
2019-02-02T23:53:49.910Z,197.77
2019-02-02T23:56:19.225Z,191.47
2019-02-02T23:58:48.542Z,193.30
